KGGG/GGG METAR and TAF weather

Enter ICAO airport designator
Station Type Date Time Source
KGGG METAR 2020/09/30 14:53 UTC NOAA

KGGG 301453Z 24006KT 10SM CLR 22/08 A3008 RMK AO2 SLP183 T02170083 51007 $


Station Type Date Time Source
KGGG Decoded METAR 2020/09/30 14:53 UTC NOAA

LONGVIEW GREGG COUNTY AIRPORT , TX, United States (KGGG) 32-23N 094-43W 107M
Sep 30, 2020 - 10:53 AM EDT / 2020.09.30 1453 UTC
Wind: from the WSW (240 degrees) at 7 MPH (6 KT):0
Visibility: 10 mile(s):0
Sky conditions: clear
Temperature: 71.1 F (21.7 C)
Dew Point: 46.9 F (8.3 C)
Relative Humidity: 42%
Pressure (altimeter): 30.08 in. Hg (1018 hPa)
Pressure tendency: 0.02 inches (0.7 hPa) higher than three hours ago
ob: KGGG 301453Z 24006KT 10SM CLR 22/08 A3008 RMK AO2 SLP183 T02170083 51007
cycle: 15

Station Type Date Time Source
KGGG TAF 2020/09/30 12:22 UTC NOAA

TAF KGGG 301120Z 3012/0112 18006KT P6SM SKC
FM301500 23009G17KT P6SM SKC
FM010000 20003KT P6SM SKC

Example: see airport list